Live from Altenrhein
LIVE
LSZR 271150Z 35003KT 280V050 CAVOK 23/13 Q1015 NOSIG RMK H

People´s C-Office:

T: +41 (0)71 858 51 65

E: c-office@peoples.ch

Webcam Airport St. Gallen-Altenrhein

Live images LSZR.

 

Live from Altenrhein
LIVE
LSZR 271150Z 35003KT 280V050 CAVOK 23/13 Q1015 NOSIG RMK H
Time-laps today
2016-05-27 00:00:01
LSZR 262150Z AUTO VRB02KT CAVOK 17/13 Q1014
Time-laps yesterday
2016-05-26 00:14:56
LSZR 252150Z AUTO VRB01KT 9999 FEW070 OVC090 15/11 Q1015
Time-laps 3 days ago
2016-05-24 00:14:54
LSZR 232150Z AUTO 22009KT 130V260 9999 -RA BKN050 08/05 Q1015